createdAt,value
2023-04-10T00:05:15.380Z,7.20
2023-04-10T00:11:17.255Z,7.60
2023-04-10T00:17:19.401Z,8.00
2023-04-10T00:23:21.375Z,8.20
2023-04-10T00:29:23.943Z,8.30
2023-04-10T00:35:25.707Z,8.40
2023-04-10T00:41:29.422Z,8.30
2023-04-10T00:47:31.877Z,8.30
2023-04-10T00:53:33.833Z,8.30
2023-04-10T00:59:36.102Z,8.40
2023-04-10T01:06:06.213Z,8.30
2023-04-10T01:12:31.385Z,8.30
2023-04-10T01:18:48.743Z,8.30
2023-04-10T01:25:18.014Z,8.30
2023-04-10T01:31:40.707Z,8.40
2023-04-10T01:37:46.678Z,8.30
2023-04-10T01:43:50.946Z,8.30
2023-04-10T01:49:55.987Z,8.30
2023-04-10T01:55:58.352Z,8.30
2023-04-10T02:02:01.813Z,8.40
2023-04-10T02:08:15.564Z,8.30
2023-04-10T02:14:20.518Z,8.30
2023-04-10T02:20:27.298Z,8.30
2023-04-10T02:26:29.339Z,8.20
2023-04-10T02:32:33.600Z,8.20
2023-04-10T02:38:35.672Z,8.20
2023-04-10T02:44:39.366Z,8.30
2023-04-10T02:50:46.039Z,8.20
2023-04-10T02:56:48.018Z,8.20
2023-04-10T03:02:51.808Z,8.20
2023-04-10T03:08:54.025Z,8.20
2023-04-10T03:14:55.848Z,8.10
2023-04-10T03:20:57.790Z,8.20
2023-04-10T03:27:02.334Z,8.20
2023-04-10T03:33:04.084Z,8.10
2023-04-10T03:39:06.540Z,8.10
2023-04-10T03:45:10.378Z,8.10
2023-04-10T03:51:12.534Z,8.10
2023-04-10T03:57:14.381Z,8.00
2023-04-10T04:03:16.508Z,8.00
2023-04-10T04:09:19.649Z,8.00
2023-04-10T04:15:26.198Z,8.00
2023-04-10T04:21:29.346Z,8.00
2023-04-10T04:27:34.378Z,8.00
2023-04-10T04:33:36.241Z,8.00
2023-04-10T04:39:38.560Z,8.00
2023-04-10T04:45:40.314Z,8.00
2023-04-10T04:51:42.350Z,8.00
2023-04-10T04:57:44.303Z,8.00
2023-04-10T05:03:46.328Z,8.10
2023-04-10T05:09:48.321Z,8.40
2023-04-10T05:15:51.341Z,8.60
2023-04-10T05:21:53.160Z,8.90
2023-04-10T05:27:57.429Z,9.20
2023-04-10T05:33:59.253Z,8.90
2023-04-10T05:40:02.430Z,9.00
2023-04-10T05:46:05.718Z,9.10
2023-04-10T05:52:08.661Z,8.90
2023-04-10T05:58:10.653Z,8.90
2023-04-10T06:04:15.250Z,9.10
2023-04-10T06:10:17.310Z,9.30
2023-04-10T06:16:19.250Z,9.40
2023-04-10T06:22:21.449Z,9.60
2023-04-10T06:28:24.368Z,9.90
2023-04-10T06:34:26.390Z,9.90
2023-04-10T06:40:29.628Z,10.10
2023-04-10T06:46:32.324Z,9.90
2023-04-10T06:52:34.147Z,10.00
2023-04-10T06:58:36.031Z,10.00
2023-04-10T07:04:37.852Z,10.10
2023-04-10T07:10:39.740Z,10.10
2023-04-10T07:16:41.772Z,10.50
2023-04-10T07:22:43.579Z,10.40
2023-04-10T07:28:46.648Z,10.50
2023-04-10T07:34:48.868Z,10.80
2023-04-10T07:40:56.968Z,10.90
2023-04-10T07:46:59.258Z,10.90
2023-04-10T07:53:08.668Z,11.10
2023-04-10T07:59:10.736Z,11.20
2023-04-10T08:05:12.631Z,11.50
2023-04-10T08:11:30.388Z,11.50
2023-04-10T08:17:33.868Z,11.70
2023-04-10T08:23:35.632Z,12.00
2023-04-10T08:29:37.431Z,12.00
2023-04-10T08:35:39.352Z,12.20
2023-04-10T08:41:41.947Z,12.40
2023-04-10T08:47:46.184Z,12.70
2023-04-10T08:53:50.948Z,12.80
2023-04-10T08:59:53.505Z,13.00
2023-04-10T09:05:56.808Z,13.10
2023-04-10T09:12:01.570Z,13.70
2023-04-10T09:18:04.666Z,13.90
2023-04-10T09:24:06.548Z,14.20
2023-04-10T09:30:09.020Z,14.30
2023-04-10T09:36:14.084Z,14.30
2023-04-10T09:42:16.413Z,14.60
2023-04-10T09:48:18.924Z,14.90
2023-04-10T09:54:37.836Z,14.80
2023-04-10T10:00:47.538Z,15.10
2023-04-10T10:06:49.788Z,15.20
2023-04-10T10:13:00.891Z,15.00
2023-04-10T10:19:17.901Z,15.50
2023-04-10T10:25:21.300Z,15.90
2023-04-10T10:31:25.024Z,16.10
2023-04-10T10:37:29.276Z,16.10
2023-04-10T10:43:46.418Z,16.50
2023-04-10T10:50:07.283Z,15.90
2023-04-10T10:56:22.789Z,15.50
2023-04-10T11:02:24.975Z,16.00
2023-04-10T11:08:37.120Z,16.40
2023-04-10T11:14:43.563Z,16.60
2023-04-10T11:21:16.701Z,16.00
2023-04-10T11:27:45.110Z,16.20
2023-04-10T11:33:57.718Z,16.40
2023-04-10T11:40:06.764Z,16.40
2023-04-10T11:46:08.937Z,16.50
2023-04-10T11:52:10.799Z,16.30
2023-04-10T11:58:27.909Z,16.20
2023-04-10T12:04:30.413Z,16.20
2023-04-10T12:10:46.142Z,16.10
2023-04-10T12:16:48.957Z,16.20
2023-04-10T12:22:51.185Z,16.40
2023-04-10T12:28:58.134Z,16.60
2023-04-10T12:35:02.344Z,16.50
2023-04-10T12:41:04.877Z,16.90
2023-04-10T12:47:06.890Z,17.30
2023-04-10T12:53:09.502Z,16.90
2023-04-10T12:59:12.898Z,17.20
2023-04-10T13:05:16.426Z,17.20
2023-04-10T13:11:18.697Z,17.10
2023-04-10T13:17:22.029Z,17.30
2023-04-10T13:23:23.898Z,17.40
2023-04-10T13:29:25.897Z,17.70
2023-04-10T13:35:28.132Z,17.50
2023-04-10T13:41:30.030Z,17.20
2023-04-10T13:47:32.519Z,17.00
2023-04-10T13:53:34.890Z,17.20
2023-04-10T13:59:36.811Z,17.60
2023-04-10T14:05:41.160Z,17.00
2023-04-10T14:11:43.226Z,17.00
2023-04-10T14:17:45.597Z,17.00
2023-04-10T14:23:49.004Z,17.10
2023-04-10T14:29:54.996Z,17.30
2023-04-10T14:35:59.661Z,17.30
2023-04-10T14:42:02.298Z,17.40
2023-04-10T14:48:04.965Z,17.20
2023-04-10T14:54:08.500Z,17.30
2023-04-10T15:00:10.930Z,17.40
2023-04-10T15:06:12.792Z,18.10
2023-04-10T15:12:14.623Z,17.80
2023-04-10T15:18:16.876Z,17.40
2023-04-10T15:24:18.670Z,16.90
2023-04-10T15:30:20.591Z,16.70
2023-04-10T15:36:22.732Z,16.60
2023-04-10T15:42:25.492Z,16.60
2023-04-10T15:48:27.773Z,16.40
2023-04-10T15:54:29.962Z,16.40
2023-04-10T16:00:31.939Z,16.20
2023-04-10T16:06:34.494Z,16.20
2023-04-10T16:12:36.378Z,16.10
2023-04-10T16:18:38.417Z,16.10
2023-04-10T16:24:40.337Z,16.00
2023-04-10T16:30:42.330Z,16.00
2023-04-10T16:36:44.376Z,16.00
2023-04-10T16:42:47.309Z,15.90
2023-04-10T16:48:49.558Z,15.90
2023-04-10T16:54:54.402Z,15.70
2023-04-10T17:00:57.094Z,15.60
2023-04-10T17:06:58.896Z,15.60
2023-04-10T17:13:00.772Z,15.50
2023-04-10T17:19:02.961Z,15.50
2023-04-10T17:25:08.059Z,15.40
2023-04-10T17:31:13.508Z,15.40
2023-04-10T17:43:31.222Z,15.30
2023-04-10T17:49:32.989Z,15.10
2023-04-10T17:55:39.701Z,15.20
2023-04-10T18:01:45.832Z,15.10
2023-04-10T18:07:52.406Z,15.10
2023-04-10T18:13:54.315Z,15.00
2023-04-10T18:19:57.683Z,14.90
2023-04-10T18:25:59.941Z,14.90
2023-04-10T18:32:04.029Z,14.90
2023-04-10T18:38:07.367Z,14.90
2023-04-10T18:44:12.414Z,14.90
2023-04-10T18:50:15.628Z,14.80
2023-04-10T18:56:17.435Z,14.70
2023-04-10T19:02:20.405Z,14.70
2023-04-10T19:08:22.311Z,14.60
2023-04-10T19:14:24.077Z,14.60
2023-04-10T19:20:50.944Z,14.50
2023-04-10T19:26:48.599Z,14.50
2023-04-10T19:32:53.284Z,14.50
2023-04-10T19:38:57.342Z,14.40
2023-04-10T19:44:59.575Z,14.30
2023-04-10T19:51:05.864Z,14.20
2023-04-10T19:57:07.836Z,14.30
2023-04-10T20:03:10.002Z,14.10
2023-04-10T20:09:14.780Z,14.10
2023-04-10T20:15:17.915Z,13.40
2023-04-10T20:21:21.796Z,12.40
2023-04-10T20:27:24.779Z,11.30
2023-04-10T20:33:27.734Z,10.80
2023-04-10T20:39:29.574Z,10.60
2023-04-10T20:45:31.506Z,10.50
2023-04-10T20:51:37.581Z,10.50
2023-04-10T20:57:40.400Z,10.40
2023-04-10T21:03:42.612Z,10.50
2023-04-10T21:09:44.531Z,10.40
2023-04-10T21:15:48.188Z,10.40
2023-04-10T21:21:50.228Z,10.40
2023-04-10T21:27:52.063Z,10.40
2023-04-10T21:33:53.855Z,10.50
2023-04-10T21:39:55.689Z,10.70
2023-04-10T21:45:57.600Z,10.80
2023-04-10T21:51:59.698Z,10.40
2023-04-10T21:58:01.538Z,10.20
2023-04-10T22:04:03.550Z,10.10
2023-04-10T22:10:06.264Z,10.00
2023-04-10T22:16:08.341Z,10.00
2023-04-10T22:22:10.488Z,10.10
2023-04-10T22:28:12.408Z,10.00
2023-04-10T22:34:15.802Z,9.80
2023-04-10T22:40:17.730Z,9.90
2023-04-10T22:46:19.751Z,9.80
2023-04-10T22:52:21.512Z,9.70
2023-04-10T22:58:23.341Z,9.60
2023-04-10T23:04:25.159Z,9.60
2023-04-10T23:10:27.101Z,9.40
2023-04-10T23:16:29.237Z,9.40
2023-04-10T23:22:31.236Z,9.30
2023-04-10T23:28:33.271Z,9.30
2023-04-10T23:34:35.224Z,9.20
2023-04-10T23:40:37.411Z,9.20
2023-04-10T23:46:39.392Z,9.10
2023-04-10T23:52:42.293Z,9.10
2023-04-10T23:58:44.101Z,9.00
